Time;durP1;ratioP1;P1;durP2;ratioP2;P2;SDS_P1;SDS_P2;PMS_P1;PMS_P2;Temp;Humidity;BMP_temperature;BMP_pressure;BME280_temperature;BME280_humidity;BME280_pressure;Samples;Min_cycle;Max_cycle;Signal;HPM_P1;HPM_P2
2022/10/29 00:01:53;;;;;;;10.03;5.73;;;11.60;84.60;;;;;;5008187;28;20218;-60
2022/10/29 00:04:19;;;;;;;10.67;4.93;;;11.60;84.40;;;;;;5042804;28;20269;-61
2022/10/29 00:06:47;;;;;;;10.03;4.90;;;11.60;84.80;;;;;;5030757;28;20207;-61
2022/10/29 00:09:13;;;;;;;11.23;5.73;;;11.60;84.80;;;;;;5031894;28;20176;-61
2022/10/29 00:11:38;;;;;;;6.07;4.33;;;11.60;84.40;;;;;;5068682;28;20285;-61
2022/10/29 00:14:04;;;;;;;10.13;4.63;;;11.60;84.70;;;;;;5034377;28;20214;-61
2022/10/29 00:16:36;;;;;;;9.40;4.53;;;11.60;84.70;;;;;;5016117;28;20192;-61
2022/10/29 00:19:03;;;;;;;7.40;4.83;;;11.60;84.80;;;;;;5022660;28;20182;-61
2022/10/29 00:21:29;;;;;;;12.10;4.33;;;11.60;84.70;;;;;;5021590;28;20188;-61
2022/10/29 00:23:56;;;;;;;5.97;4.50;;;11.60;84.70;;;;;;5034103;28;20189;-61
2022/10/29 00:26:22;;;;;;;8.57;4.07;;;11.60;85.00;;;;;;5030588;28;20265;-60
2022/10/29 00:28:53;;;;;;;13.40;5.23;;;11.60;84.80;;;;;;5042758;28;20189;-61
2022/10/29 00:31:22;;;;;;;9.70;5.43;;;11.60;84.70;;;;;;5031142;28;20234;-60
2022/10/29 00:33:49;;;;;;;10.80;4.80;;;11.60;84.60;;;;;;5032535;28;20186;-60
2022/10/29 00:36:17;;;;;;;6.60;4.67;;;11.60;84.60;;;;;;5047223;28;20234;-60
2022/10/29 00:38:44;;;;;;;7.03;4.60;;;11.50;84.50;;;;;;5034064;28;20190;-60
2022/10/29 00:41:13;;;;;;;4.93;4.23;;;11.40;84.40;;;;;;5045692;28;20179;-60
2022/10/29 00:43:45;;;;;;;6.10;4.90;;;11.30;84.50;;;;;;5032822;28;20207;-60
2022/10/29 00:46:38;;;;;;;7.93;4.47;;;11.30;84.40;;;;;;5029520;28;20178;-60
2022/10/29 00:49:03;;;;;;;7.77;4.13;;;11.30;84.30;;;;;;5028193;28;20190;-60
2022/10/29 00:51:31;;;;;;;9.23;4.33;;;11.30;84.20;;;;;;5060727;28;20188;-60
2022/10/29 00:54:08;;;;;;;6.70;4.73;;;11.20;84.50;;;;;;5028881;28;20270;-60
2022/10/29 00:56:39;;;;;;;9.03;5.07;;;11.10;84.60;;;;;;5040092;28;20372;-60
2022/10/29 00:59:06;;;;;;;9.73;5.47;;;11.10;84.90;;;;;;5030610;28;20179;-60
2022/10/29 01:01:32;;;;;;;10.63;5.53;;;11.00;84.60;;;;;;5053924;28;20198;-60
2022/10/29 01:03:59;;;;;;;10.30;5.57;;;11.00;84.80;;;;;;5036799;28;20191;-60
2022/10/29 01:06:27;;;;;;;6.90;4.77;;;11.00;84.60;;;;;;5034218;28;20187;-60
2022/10/29 01:08:52;;;;;;;9.90;5.00;;;11.10;84.50;;;;;;5036585;28;20189;-60
2022/10/29 01:11:55;;;;;;;11.07;5.17;;;11.10;84.80;;;;;;5018266;28;20191;-60
2022/10/29 01:15:01;;;;;;;6.80;4.50;;;11.10;84.50;;;;;;5032073;28;20190;-60
2022/10/29 01:17:39;;;;;;;6.23;4.60;;;11.10;84.50;;;;;;5032535;28;20272;-60
2022/10/29 01:21:00;;;;;;;6.93;4.23;;;11.00;84.50;;;;;;5031442;28;20183;-60
2022/10/29 01:23:37;;;;;;;7.07;4.50;;;11.00;84.80;;;;;;4987455;28;20230;-60
2022/10/29 01:26:35;;;;;;;6.40;4.17;;;11.10;84.70;;;;;;5034082;28;20222;-60
2022/10/29 01:29:38;;;;;;;6.17;3.70;;;11.00;84.60;;;;;;5025746;28;20234;-60
2022/10/29 01:32:12;;;;;;;10.40;3.70;;;11.10;84.70;;;;;;5030146;28;20237;-60
2022/10/29 01:34:54;;;;;;;5.83;4.47;;;11.10;84.40;;;;;;5032073;28;20234;-60
2022/10/29 01:37:25;;;;;;;8.07;4.80;;;11.10;84.40;;;;;;5033051;28;20187;-60
2022/10/29 01:40:00;;;;;;;7.13;4.47;;;11.00;84.20;;;;;;5021469;28;20180;-60
2022/10/29 01:42:39;;;;;;;10.70;4.47;;;11.00;84.30;;;;;;5028174;28;20213;-60
2022/10/29 01:45:15;;;;;;;7.10;3.90;;;11.00;84.30;;;;;;5026002;28;20188;-60
2022/10/29 01:48:10;;;;;;;8.33;5.47;;;10.90;84.30;;;;;;5039484;28;20183;-60
2022/10/29 01:50:38;;;;;;;4.90;4.17;;;11.00;84.50;;;;;;5027400;28;20206;-60
2022/10/29 01:53:05;;;;;;;5.37;4.30;;;10.90;84.70;;;;;;5032411;28;20191;-60
2022/10/29 01:55:36;;;;;;;7.97;4.63;;;10.90;84.50;;;;;;5048585;28;20267;-60
2022/10/29 01:58:03;;;;;;;7.10;4.20;;;10.90;84.50;;;;;;5034310;28;20201;-60
2022/10/29 02:00:55;;;;;;;6.60;4.27;;;10.90;84.30;;;;;;5044934;28;20191;-60
2022/10/29 02:03:23;;;;;;;5.23;4.30;;;10.90;84.30;;;;;;5032098;28;20272;-60
2022/10/29 02:06:33;;;;;;;4.63;4.20;;;10.70;84.50;;;;;;5032877;28;20187;-60
2022/10/29 02:09:01;;;;;;;10.00;4.23;;;10.80;84.60;;;;;;5023376;28;20285;-60
2022/10/29 02:11:50;;;;;;;10.90;4.60;;;10.80;84.60;;;;;;5026998;28;20192;-60
2022/10/29 02:14:26;;;;;;;7.33;4.03;;;10.80;84.70;;;;;;5029648;28;20222;-61
2022/10/29 02:16:54;;;;;;;7.27;4.07;;;10.80;84.80;;;;;;5041043;28;20273;-61
2022/10/29 02:19:19;;;;;;;6.07;3.67;;;10.80;84.60;;;;;;5030644;28;20276;-61
2022/10/29 02:21:45;;;;;;;6.73;3.87;;;10.70;84.60;;;;;;5016621;28;20306;-61
2022/10/29 02:24:11;;;;;;;9.60;4.60;;;10.80;84.70;;;;;;5015623;28;20237;-60
2022/10/29 02:26:37;;;;;;;4.93;3.83;;;10.80;84.80;;;;;;5015964;28;20217;-60
2022/10/29 02:29:02;;;;;;;10.53;4.37;;;10.80;84.70;;;;;;5016316;28;20275;-60
2022/10/29 02:31:28;;;;;;;6.13;3.83;;;10.60;84.70;;;;;;5019698;28;20183;-60
2022/10/29 02:33:54;;;;;;;9.43;4.23;;;10.60;84.80;;;;;;5021168;28;20265;-60
2022/10/29 02:36:19;;;;;;;5.80;4.20;;;10.60;84.90;;;;;;5029166;28;20216;-60
2022/10/29 02:38:45;;;;;;;12.87;4.70;;;10.60;84.70;;;;;;5052909;28;20206;-60
2022/10/29 02:41:11;;;;;;;8.57;4.07;;;10.60;84.60;;;;;;5028180;28;20191;-60
2022/10/29 02:43:36;;;;;;;7.83;4.30;;;10.60;84.30;;;;;;5020580;28;20223;-60
2022/10/29 02:46:21;;;;;;;9.23;4.57;;;10.60;84.40;;;;;;5038044;28;20183;-60
2022/10/29 02:48:48;;;;;;;7.17;4.33;;;10.60;84.40;;;;;;5021368;28;20285;-60
2022/10/29 02:51:14;;;;;;;6.63;4.20;;;10.60;84.50;;;;;;5043893;28;20190;-60
2022/10/29 02:53:40;;;;;;;4.87;3.97;;;10.60;84.60;;;;;;5042787;28;20281;-60
2022/10/29 02:56:06;;;;;;;8.90;4.37;;;10.60;84.40;;;;;;5024890;28;20381;-60
2022/10/29 02:58:33;;;;;;;6.73;3.87;;;10.60;84.40;;;;;;5027125;28;20187;-61
2022/10/29 03:00:58;;;;;;;7.27;3.73;;;10.50;84.30;;;;;;5033894;28;20180;-61
2022/10/29 03:03:24;;;;;;;6.33;3.57;;;10.50;84.30;;;;;;5037835;28;20280;-61
2022/10/29 03:05:50;;;;;;;7.07;4.00;;;10.50;84.40;;;;;;5051724;28;20202;-61
2022/10/29 03:08:16;;;;;;;7.40;4.20;;;10.50;84.40;;;;;;5027265;28;20187;-61
2022/10/29 03:10:42;;;;;;;7.97;4.07;;;10.50;84.60;;;;;;5041122;28;20187;-61
2022/10/29 03:13:08;;;;;;;8.47;4.57;;;10.50;84.40;;;;;;5019029;28;20198;-61
2022/10/29 03:15:34;;;;;;;12.30;4.47;;;10.50;84.40;;;;;;5043401;28;20244;-61
2022/10/29 03:17:59;;;;;;;9.10;4.30;;;10.40;84.30;;;;;;5034955;28;20191;-61
2022/10/29 03:20:25;;;;;;;6.37;3.60;;;10.40;84.30;;;;;;5016184;28;20195;-61
2022/10/29 03:22:51;;;;;;;5.87;3.67;;;10.40;84.50;;;;;;5030577;28;20215;-61
2022/10/29 03:25:16;;;;;;;7.73;4.40;;;10.40;84.60;;;;;;5023837;28;20190;-61
2022/10/29 03:27:45;;;;;;;9.20;4.20;;;10.40;84.60;;;;;;5018930;28;20257;-61
2022/10/29 03:30:13;;;;;;;7.63;4.30;;;10.40;84.40;;;;;;5018093;28;20203;-61
2022/10/29 03:32:42;;;;;;;7.50;4.37;;;10.40;84.50;;;;;;5038977;28;20209;-61
2022/10/29 03:35:10;;;;;;;7.73;4.00;;;10.40;84.50;;;;;;5047027;28;20197;-62
2022/10/29 03:37:36;;;;;;;4.87;4.10;;;10.40;84.50;;;;;;5037593;28;20195;-61
2022/10/29 03:40:03;;;;;;;7.47;3.80;;;10.30;84.50;;;;;;5050133;28;20198;-60
2022/10/29 03:42:30;;;;;;;7.20;3.80;;;10.30;84.30;;;;;;5037329;28;20354;-60
2022/10/29 03:44:59;;;;;;;4.83;3.90;;;10.30;84.30;;;;;;5004318;28;20230;-61
2022/10/29 03:47:26;;;;;;;7.93;4.50;;;10.30;84.50;;;;;;5030121;28;20198;-61
2022/10/29 03:49:53;;;;;;;4.87;4.30;;;10.30;84.40;;;;;;5066810;28;20186;-61
2022/10/29 03:52:18;;;;;;;5.70;3.90;;;10.30;84.50;;;;;;5064389;28;20273;-61
2022/10/29 03:54:44;;;;;;;4.90;4.07;;;10.30;84.50;;;;;;5022805;28;20348;-61
2022/10/29 03:57:10;;;;;;;3.90;3.50;;;10.20;84.50;;;;;;5019263;28;20202;-62
2022/10/29 03:59:35;;;;;;;5.67;3.63;;;10.30;84.40;;;;;;5023650;28;20218;-62
2022/10/29 04:02:01;;;;;;;8.67;4.33;;;10.30;84.40;;;;;;5026633;28;20211;-62
2022/10/29 04:04:27;;;;;;;8.83;4.03;;;10.20;84.40;;;;;;5012799;28;20187;-61
2022/10/29 04:06:52;;;;;;;5.20;4.23;;;10.20;84.40;;;;;;5022851;28;20212;-62
2022/10/29 04:09:18;;;;;;;11.37;4.30;;;10.20;84.50;;;;;;5041873;28;20197;-62
2022/10/29 04:11:44;;;;;;;7.50;4.40;;;10.20;84.40;;;;;;5024750;28;20183;-61
2022/10/29 04:14:09;;;;;;;6.20;4.23;;;10.20;84.50;;;;;;5038887;28;20190;-60
2022/10/29 04:16:36;;;;;;;6.87;4.17;;;10.20;84.50;;;;;;5045798;28;20281;-61
2022/10/29 04:19:02;;;;;;;6.97;3.83;;;10.20;84.30;;;;;;5029613;28;20292;-60
2022/10/29 04:21:28;;;;;;;5.00;4.20;;;10.20;84.50;;;;;;5050173;28;20198;-60
2022/10/29 04:23:53;;;;;;;6.00;4.07;;;10.20;84.40;;;;;;5023766;28;20211;-60
2022/10/29 04:26:19;;;;;;;5.47;4.33;;;10.20;84.30;;;;;;5023160;28;20191;-60
2022/10/29 04:28:49;;;;;;;8.40;4.10;;;10.10;84.30;;;;;;5043843;28;20186;-60
2022/10/29 04:31:15;;;;;;;5.47;3.87;;;10.10;84.50;;;;;;5040993;28;20203;-60
2022/10/29 04:33:41;;;;;;;7.73;5.37;;;10.10;84.70;;;;;;5039587;28;20179;-60
2022/10/29 04:36:07;;;;;;;7.50;5.03;;;10.20;84.80;;;;;;5023085;28;20190;-61
2022/10/29 04:38:33;;;;;;;6.37;4.17;;;10.20;84.70;;;;;;5034230;28;20196;-60
2022/10/29 04:41:00;;;;;;;5.80;4.20;;;10.20;84.90;;;;;;5049301;28;20191;-60
2022/10/29 04:43:27;;;;;;;5.30;4.03;;;10.20;85.20;;;;;;5021851;28;20226;-60
2022/10/29 04:45:55;;;;;;;5.60;4.30;;;10.20;85.10;;;;;;5028052;28;20191;-60
2022/10/29 04:48:22;;;;;;;4.90;4.00;;;10.00;85.30;;;;;;5033101;28;20186;-60
2022/10/29 04:50:47;;;;;;;5.80;3.93;;;9.80;85.80;;;;;;5038883;28;20237;-60
2022/10/29 04:53:14;;;;;;;8.57;4.43;;;9.90;85.90;;;;;;5064931;28;20265;-59
2022/10/29 04:55:40;;;;;;;9.60;4.10;;;9.90;85.40;;;;;;5052165;28;20250;-59
2022/10/29 04:58:10;;;;;;;8.57;4.50;;;10.00;85.40;;;;;;5033890;28;20191;-60
2022/10/29 05:00:36;;;;;;;7.43;4.40;;;10.00;85.30;;;;;;5045423;28;20191;-60
2022/10/29 05:03:02;;;;;;;4.97;4.00;;;10.10;85.30;;;;;;5037381;28;20305;-60
2022/10/29 05:05:28;;;;;;;8.07;4.30;;;9.90;85.20;;;;;;5045171;28;20252;-59
2022/10/29 05:07:59;;;;;;;6.80;4.07;;;10.00;85.40;;;;;;5047738;28;21178;-60
2022/10/29 05:10:26;;;;;;;4.90;4.10;;;10.00;85.30;;;;;;5030554;28;20209;-61
2022/10/29 05:13:02;;;;;;;11.90;4.77;;;10.00;85.00;;;;;;5041145;28;20210;-60
2022/10/29 05:15:29;;;;;;;8.43;4.13;;;10.00;84.80;;;;;;5044874;28;20201;-61
2022/10/29 05:17:56;;;;;;;5.00;3.73;;;10.00;84.70;;;;;;5012795;28;20191;-61
2022/10/29 05:20:22;;;;;;;4.90;4.30;;;10.10;84.60;;;;;;5048838;28;20198;-60
2022/10/29 05:22:48;;;;;;;6.53;4.03;;;10.00;84.50;;;;;;5032429;28;20207;-61
2022/10/29 05:25:14;;;;;;;9.30;4.70;;;10.00;84.50;;;;;;5050902;28;20195;-62
2022/10/29 05:27:40;;;;;;;7.30;4.30;;;10.00;84.30;;;;;;5049192;28;20273;-62
2022/10/29 05:30:07;;;;;;;6.30;4.13;;;10.00;84.30;;;;;;5018275;28;20221;-61
2022/10/29 05:32:32;;;;;;;8.83;4.07;;;10.00;84.10;;;;;;5030440;28;20190;-61
2022/10/29 05:34:58;;;;;;;6.93;4.23;;;10.00;84.20;;;;;;5021266;28;20190;-61
2022/10/29 05:37:25;;;;;;;9.13;5.33;;;10.00;84.30;;;;;;5023106;28;20206;-61
2022/10/29 05:39:50;;;;;;;9.00;4.13;;;9.80;84.40;;;;;;5018382;28;20198;-61
2022/10/29 05:42:16;;;;;;;10.77;4.43;;;9.80;84.50;;;;;;5031954;28;20202;-61
2022/10/29 05:44:42;;;;;;;5.60;3.70;;;9.80;84.40;;;;;;5039724;28;20219;-60
2022/10/29 05:47:07;;;;;;;5.03;4.23;;;9.80;84.30;;;;;;5029340;28;20187;-59
2022/10/29 05:49:33;;;;;;;5.47;4.27;;;9.80;84.30;;;;;;5025974;28;20193;-59
2022/10/29 05:51:59;;;;;;;9.17;4.60;;;9.80;84.20;;;;;;5017512;28;20195;-60
2022/10/29 05:54:25;;;;;;;5.20;4.40;;;9.80;84.30;;;;;;5024480;28;20290;-59
2022/10/29 05:56:50;;;;;;;4.23;3.77;;;9.80;84.30;;;;;;5025427;28;20334;-61
2022/10/29 05:59:16;;;;;;;7.47;4.13;;;9.90;84.40;;;;;;5042701;28;20187;-59
2022/10/29 06:01:41;;;;;;;6.43;4.07;;;9.90;84.50;;;;;;5042631;28;20201;-59
2022/10/29 06:04:07;;;;;;;8.37;4.50;;;9.80;84.70;;;;;;5040456;28;20183;-59
2022/10/29 06:06:33;;;;;;;8.57;4.70;;;9.90;84.60;;;;;;5038722;28;20193;-59
2022/10/29 06:08:59;;;;;;;6.47;4.27;;;9.90;84.80;;;;;;5016723;28;20191;-59
2022/10/29 06:11:24;;;;;;;8.80;4.10;;;9.90;84.90;;;;;;5061400;28;20225;-59
2022/10/29 06:13:54;;;;;;;5.57;4.10;;;9.90;84.90;;;;;;5019025;28;20191;-59
2022/10/29 06:16:21;;;;;;;6.80;4.53;;;9.90;85.20;;;;;;5025981;28;20263;-59
2022/10/29 06:18:47;;;;;;;11.27;5.03;;;10.00;85.10;;;;;;5025621;28;20241;-60
2022/10/29 06:21:12;;;;;;;7.03;5.30;;;10.00;85.10;;;;;;5022910;28;20179;-60
2022/10/29 06:23:38;;;;;;;7.97;4.50;;;10.00;85.20;;;;;;5015430;28;20211;-59
2022/10/29 06:26:04;;;;;;;5.70;4.60;;;10.10;85.20;;;;;;5021039;28;20332;-60
2022/10/29 06:28:30;;;;;;;10.07;4.50;;;10.10;85.30;;;;;;5030694;28;20213;-60
2022/10/29 06:30:55;;;;;;;9.07;4.53;;;10.20;85.10;;;;;;5067071;28;20183;-60
2022/10/29 06:33:21;;;;;;;7.97;4.53;;;10.20;85.10;;;;;;5039642;28;20183;-60
2022/10/29 06:35:47;;;;;;;5.93;4.33;;;10.20;85.10;;;;;;5056840;28;20222;-60
2022/10/29 06:38:13;;;;;;;7.23;4.57;;;10.20;85.10;;;;;;5049440;28;20180;-60
2022/10/29 06:40:40;;;;;;;6.63;4.03;;;10.10;85.00;;;;;;5032942;28;20187;-60
2022/10/29 06:43:09;;;;;;;6.33;4.23;;;10.10;85.60;;;;;;5033688;28;20207;-60
2022/10/29 06:45:35;;;;;;;5.10;4.07;;;10.20;85.50;;;;;;5032996;28;20183;-60
2022/10/29 06:48:01;;;;;;;6.30;4.77;;;10.20;85.60;;;;;;5045957;28;20185;-60
2022/10/29 06:50:27;;;;;;;6.13;4.40;;;10.20;85.40;;;;;;4997807;28;20192;-60
2022/10/29 06:53:01;;;;;;;7.73;4.73;;;10.20;85.50;;;;;;5021764;28;20188;-60
2022/10/29 06:55:27;;;;;;;6.70;4.70;;;10.30;85.50;;;;;;5023532;28;20240;-60
2022/10/29 06:57:56;;;;;;;6.67;4.53;;;10.30;85.60;;;;;;5037815;28;20207;-60
2022/10/29 07:00:22;;;;;;;10.20;5.03;;;10.30;85.60;;;;;;5019506;28;20195;-60
2022/10/29 07:02:48;;;;;;;6.00;4.20;;;10.30;85.70;;;;;;5032794;28;20207;-60
2022/10/29 07:05:13;;;;;;;8.10;5.30;;;10.30;85.70;;;;;;5019711;28;20274;-60
2022/10/29 07:07:39;;;;;;;11.03;5.67;;;10.40;85.90;;;;;;5016318;28;20218;-60
2022/10/29 07:10:05;;;;;;;8.67;5.67;;;10.40;86.00;;;;;;5039650;28;20190;-60
2022/10/29 07:12:31;;;;;;;9.23;5.00;;;10.40;85.90;;;;;;5018629;28;20219;-60
2022/10/29 07:14:56;;;;;;;7.93;4.83;;;10.50;86.00;;;;;;5036684;28;20214;-60
2022/10/29 07:17:22;;;;;;;10.67;5.80;;;10.50;86.10;;;;;;5038392;28;20187;-60
2022/10/29 07:19:47;;;;;;;6.93;4.83;;;10.60;86.10;;;;;;5041762;28;20192;-60
2022/10/29 07:22:13;;;;;;;10.83;5.20;;;10.60;86.30;;;;;;5022324;28;20211;-60
2022/10/29 07:24:39;;;;;;;11.53;4.63;;;10.70;86.30;;;;;;5032786;28;20187;-60
2022/10/29 07:27:06;;;;;;;8.70;5.87;;;10.70;86.40;;;;;;5027865;28;20186;-59
2022/10/29 07:29:31;;;;;;;7.30;4.80;;;10.80;87.00;;;;;;5017063;28;20199;-59
2022/10/29 07:31:57;;;;;;;7.87;5.53;;;10.80;87.10;;;;;;5014877;28;20290;-59
2022/10/29 07:34:22;;;;;;;9.43;5.37;;;10.90;87.10;;;;;;5038961;28;20186;-60
2022/10/29 07:36:48;;;;;;;6.77;4.93;;;10.90;87.20;;;;;;5034508;28;20196;-60
2022/10/29 07:39:14;;;;;;;9.10;5.43;;;11.00;87.30;;;;;;5022775;28;20276;-60
2022/10/29 07:41:39;;;;;;;7.17;4.80;;;11.10;87.30;;;;;;5039097;28;20190;-60
2022/10/29 07:44:05;;;;;;;8.40;5.20;;;11.10;87.30;;;;;;5032456;28;20219;-60
2022/10/29 07:46:31;;;;;;;9.13;5.37;;;11.20;87.20;;;;;;5021211;28;20190;-60
2022/10/29 07:48:56;;;;;;;9.10;6.07;;;11.30;87.50;;;;;;5015964;28;20202;-60
2022/10/29 07:51:22;;;;;;;10.10;5.73;;;11.30;87.30;;;;;;5018859;28;20192;-60
2022/10/29 07:53:48;;;;;;;7.80;6.20;;;11.30;87.50;;;;;;5033436;28;20278;-60
2022/10/29 07:56:13;;;;;;;7.50;5.73;;;11.50;87.50;;;;;;5025010;28;20301;-60
2022/10/29 07:58:39;;;;;;;5.80;4.53;;;11.50;87.40;;;;;;5032096;28;20195;-60
2022/10/29 08:01:05;;;;;;;7.73;5.77;;;11.60;87.50;;;;;;5032748;28;20190;-60
2022/10/29 08:03:30;;;;;;;7.57;5.57;;;11.60;87.30;;;;;;5052205;28;20218;-60
2022/10/29 08:05:56;;;;;;;6.50;5.70;;;11.70;87.30;;;;;;5034464;28;20195;-60
2022/10/29 08:08:22;;;;;;;8.27;5.60;;;11.80;87.50;;;;;;5015092;28;20203;-60
2022/10/29 08:10:48;;;;;;;8.20;6.33;;;11.80;87.30;;;;;;5030085;28;20199;-60
2022/10/29 08:13:13;;;;;;;9.27;7.03;;;11.80;87.10;;;;;;5029964;28;20191;-60
2022/10/29 08:15:39;;;;;;;11.53;6.73;;;11.90;87.00;;;;;;5030984;28;20191;-60
2022/10/29 08:18:13;;;;;;;9.77;6.70;;;11.90;86.80;;;;;;5031689;28;20191;-60
2022/10/29 08:20:38;;;;;;;8.63;6.53;;;12.00;86.70;;;;;;5031877;28;20210;-60
2022/10/29 08:23:04;;;;;;;8.33;6.23;;;12.00;86.60;;;;;;5017412;28;20215;-60
2022/10/29 08:25:29;;;;;;;10.30;6.60;;;12.10;86.50;;;;;;5014309;28;20191;-60
2022/10/29 08:28:03;;;;;;;9.10;6.13;;;12.10;86.40;;;;;;5016446;28;20187;-60
2022/10/29 08:30:30;;;;;;;6.67;5.33;;;12.30;86.10;;;;;;5031112;28;20183;-60
2022/10/29 08:32:56;;;;;;;9.27;6.27;;;12.30;85.90;;;;;;5029651;28;20195;-60
2022/10/29 08:35:22;;;;;;;9.00;6.23;;;12.30;85.80;;;;;;5028831;28;20199;-60
2022/10/29 08:37:48;;;;;;;7.63;5.97;;;12.40;85.90;;;;;;5017870;28;20662;-60
2022/10/29 08:40:16;;;;;;;9.57;6.23;;;12.50;85.70;;;;;;5014702;28;20186;-59
2022/10/29 08:43:06;;;;;;;9.60;6.60;;;12.50;85.80;;;;;;5032713;28;20214;-60
2022/10/29 08:45:35;;;;;;;9.10;6.13;;;12.60;85.70;;;;;;5032084;28;20179;-60
2022/10/29 08:48:14;;;;;;;9.97;7.00;;;12.60;85.60;;;;;;5037038;28;20176;-60
2022/10/29 08:50:45;;;;;;;9.77;6.33;;;12.80;85.30;;;;;;5016491;28;20175;-60
2022/10/29 08:53:20;;;;;;;11.83;8.00;;;12.80;85.20;;;;;;5026960;28;20201;-60
2022/10/29 08:55:46;;;;;;;9.83;7.07;;;12.90;85.80;;;;;;5030459;28;20329;-60
2022/10/29 08:58:39;;;;;;;13.80;8.60;;;13.00;85.60;;;;;;5014785;28;20303;-60
2022/10/29 09:01:12;;;;;;;11.63;9.03;;;13.10;86.00;;;;;;5031412;28;20241;-60
2022/10/29 09:03:37;;;;;;;12.23;10.27;;;13.40;84.20;;;;;;5047719;28;20210;-60
2022/10/29 09:06:31;;;;;;;11.80;9.93;;;13.50;84.10;;;;;;5012709;28;20194;-60
2022/10/29 09:09:50;;;;;;;11.40;9.73;;;13.50;84.50;;;;;;5002184;28;20199;-60
2022/10/29 09:13:00;;;;;;;11.20;10.10;;;13.60;84.40;;;;;;4977395;28;20182;-60
2022/10/29 09:15:56;;;;;;;11.50;9.73;;;13.70;84.20;;;;;;5043995;28;20206;-60
2022/10/29 09:18:43;;;;;;;13.83;9.67;;;13.70;84.00;;;;;;5030217;28;20190;-60
2022/10/29 09:21:40;;;;;;;12.53;10.27;;;13.70;83.90;;;;;;5020140;28;20283;-60
2022/10/29 09:24:20;;;;;;;11.83;9.70;;;13.70;83.60;;;;;;5041885;28;20200;-60
2022/10/29 09:27:04;;;;;;;11.33;10.13;;;13.80;83.10;;;;;;5039150;28;20192;-60
2022/10/29 09:29:50;;;;;;;10.20;8.97;;;13.80;83.10;;;;;;5033996;28;20202;-60
2022/10/29 09:32:28;;;;;;;9.73;8.73;;;13.90;82.80;;;;;;5029839;28;20179;-60
2022/10/29 09:35:03;;;;;;;10.90;9.10;;;14.00;82.20;;;;;;5031325;28;20214;-60
2022/10/29 09:37:43;;;;;;;10.50;9.23;;;14.20;82.30;;;;;;5034229;28;20202;-60
2022/10/29 09:40:39;;;;;;;11.50;9.33;;;14.20;82.20;;;;;;5034424;28;20694;-60
2022/10/29 09:43:26;;;;;;;10.60;9.50;;;14.30;82.10;;;;;;5040757;28;20222;-60
2022/10/29 09:45:57;;;;;;;10.77;8.83;;;14.40;82.00;;;;;;5045627;28;20183;-60
2022/10/29 09:48:49;;;;;;;13.90;8.73;;;14.50;82.10;;;;;;5033908;28;20179;-60
2022/10/29 09:51:24;;;;;;;9.37;6.83;;;14.60;82.10;;;;;;5033091;28;20179;-60
2022/10/29 09:53:51;;;;;;;9.07;6.43;;;14.70;80.10;;;;;;5032855;28;20197;-60
2022/10/29 09:56:17;;;;;;;7.03;6.30;;;14.80;79.90;;;;;;5034152;28;20231;-60
2022/10/29 09:58:47;;;;;;;8.53;6.83;;;14.90;78.90;;;;;;5050681;28;20202;-60
2022/10/29 10:01:13;;;;;;;7.97;6.37;;;15.20;76.90;;;;;;5036396;28;20222;-60
2022/10/29 10:03:46;;;;;;;11.77;6.83;;;15.10;78.20;;;;;;5018315;28;20240;-60
2022/10/29 10:06:15;;;;;;;9.17;7.57;;;15.30;78.50;;;;;;5034814;28;20178;-60
2022/10/29 10:09:04;;;;;;;9.90;8.00;;;15.30;78.60;;;;;;5023092;28;20192;-60
2022/10/29 10:11:39;;;;;;;9.93;8.23;;;15.30;78.80;;;;;;5042813;28;20209;-60
2022/10/29 10:14:30;;;;;;;10.33;7.57;;;15.30;79.20;;;;;;5033868;28;20190;-60
2022/10/29 10:17:00;;;;;;;8.90;6.87;;;15.40;78.80;;;;;;5035134;28;20187;-60
2022/10/29 10:19:29;;;;;;;11.30;7.27;;;15.40;77.90;;;;;;5035977;28;20212;-60
2022/10/29 10:21:57;;;;;;;12.03;6.80;;;15.50;77.80;;;;;;5032928;28;20187;-60
2022/10/29 10:24:28;;;;;;;7.17;6.47;;;15.70;76.60;;;;;;5021292;28;20282;-60
2022/10/29 10:26:53;;;;;;;10.23;6.60;;;15.70;77.00;;;;;;5034356;28;20188;-60
2022/10/29 10:29:24;;;;;;;8.70;6.20;;;15.70;76.80;;;;;;5040633;28;20195;-60
2022/10/29 10:32:13;;;;;;;10.63;6.57;;;15.70;77.00;;;;;;5033533;28;20187;-60
2022/10/29 10:34:39;;;;;;;9.50;6.30;;;15.80;77.10;;;;;;5028316;28;20191;-60
2022/10/29 10:37:12;;;;;;;8.47;6.50;;;15.90;77.30;;;;;;5021021;28;20184;-60
2022/10/29 10:39:43;;;;;;;6.20;5.23;;;16.00;76.70;;;;;;5042065;28;20251;-60
2022/10/29 10:42:15;;;;;;;8.67;4.87;;;16.10;76.40;;;;;;5032018;28;20204;-60
2022/10/29 10:45:11;;;;;;;7.13;5.53;;;16.20;75.20;;;;;;5034145;28;20238;-60
2022/10/29 10:47:43;;;;;;;7.93;5.53;;;16.20;75.20;;;;;;5031108;28;20195;-60
2022/10/29 10:50:17;;;;;;;6.97;5.90;;;16.40;75.00;;;;;;5034708;28;20222;-60
2022/10/29 10:52:44;;;;;;;9.77;5.47;;;16.70;73.80;;;;;;5032215;28;20179;-60
2022/10/29 10:55:36;;;;;;;9.73;5.60;;;16.70;73.80;;;;;;5015773;28;20243;-60
2022/10/29 10:58:22;;;;;;;9.87;5.60;;;16.80;74.20;;;;;;5033962;28;20222;-60
2022/10/29 11:01:00;;;;;;;9.40;6.17;;;16.90;75.00;;;;;;5036491;28;20195;-60
2022/10/29 11:03:37;;;;;;;7.27;5.33;;;16.90;73.30;;;;;;5031513;28;20222;-60
2022/10/29 11:06:13;;;;;;;10.50;5.83;;;17.00;74.40;;;;;;5034599;28;20187;-60
2022/10/29 11:08:58;;;;;;;6.17;4.83;;;17.20;72.90;;;;;;5032758;28;20179;-60
2022/10/29 11:11:36;;;;;;;8.43;5.77;;;17.30;73.80;;;;;;5032685;28;20209;-60
2022/10/29 11:14:20;;;;;;;6.03;4.90;;;17.50;71.50;;;;;;5023869;28;20186;-60
2022/10/29 11:16:51;;;;;;;7.13;5.43;;;17.60;73.40;;;;;;5038934;28;20230;-60
2022/10/29 11:19:36;;;;;;;7.97;4.77;;;17.70;72.10;;;;;;5031034;28;20191;-60
2022/10/29 11:22:17;;;;;;;8.97;5.27;;;17.60;70.90;;;;;;5025712;28;20199;-60
2022/10/29 11:25:15;;;;;;;6.50;4.70;;;17.70;73.00;;;;;;5041742;28;20266;-60
2022/10/29 11:27:59;;;;;;;9.23;5.13;;;18.00;71.30;;;;;;5024812;28;20191;-60
2022/10/29 11:30:28;;;;;;;8.23;4.90;;;18.20;69.80;;;;;;5032817;28;20204;-60
2022/10/29 11:32:57;;;;;;;10.20;4.67;;;18.30;68.00;;;;;;5045526;28;20209;-60
2022/10/29 11:35:37;;;;;;;5.63;4.10;;;18.30;67.50;;;;;;5031394;28;20182;-60
2022/10/29 11:38:11;;;;;;;7.17;4.10;;;18.40;69.00;;;;;;5033147;28;20279;-60
2022/10/29 11:40:43;;;;;;;4.77;4.13;;;18.70;67.20;;;;;;5033140;28;20178;-60
2022/10/29 11:43:13;;;;;;;6.10;3.97;;;18.80;68.30;;;;;;5045256;28;20198;-60
2022/10/29 11:45:57;;;;;;;6.90;4.37;;;19.10;66.40;;;;;;5031717;28;20210;-60
2022/10/29 11:49:00;;;;;;;8.27;4.20;;;19.30;65.60;;;;;;5032800;28;20223;-60
2022/10/29 11:52:01;;;;;;;5.73;4.87;;;19.40;65.00;;;;;;5041832;28;20250;-60
2022/10/29 11:54:59;;;;;;;7.27;4.27;;;19.40;64.40;;;;;;5024891;28;20191;-60
2022/10/29 11:57:51;;;;;;;9.03;4.00;;;19.60;66.30;;;;;;5035561;28;20215;-60
2022/10/29 12:00:18;;;;;;;5.00;4.17;;;19.70;64.70;;;;;;5032177;28;20192;-60
2022/10/29 12:03:03;;;;;;;6.40;3.90;;;19.70;65.50;;;;;;5036018;28;20252;-60
2022/10/29 12:05:28;;;;;;;7.80;4.00;;;19.70;66.00;;;;;;5032066;28;20187;-60
2022/10/29 12:08:24;;;;;;;7.07;4.33;;;19.80;64.50;;;;;;5031298;28;20204;-60
2022/10/29 12:11:05;;;;;;;6.43;4.70;;;19.70;65.80;;;;;;5031573;28;20278;-60
2022/10/29 12:13:53;;;;;;;4.83;4.33;;;19.80;63.40;;;;;;5018883;28;20187;-60
2022/10/29 12:16:30;;;;;;;5.00;4.07;;;19.80;64.60;;;;;;5032639;28;20261;-60
2022/10/29 12:19:20;;;;;;;5.33;4.13;;;19.80;63.30;;;;;;5034460;28;20190;-60
2022/10/29 12:22:17;;;;;;;7.97;4.73;;;19.70;64.10;;;;;;5030243;28;20187;-60
2022/10/29 12:24:55;;;;;;;6.37;3.37;;;19.60;64.20;;;;;;5058879;28;20187;-60
2022/10/29 12:27:30;;;;;;;5.13;3.70;;;19.50;64.30;;;;;;5031782;28;20213;-60
2022/10/29 12:30:07;;;;;;;6.97;3.97;;;19.40;66.20;;;;;;5031292;28;20191;-60
2022/10/29 12:32:58;;;;;;;5.20;3.87;;;19.40;65.90;;;;;;5012022;28;20195;-60
2022/10/29 12:35:48;;;;;;;4.40;3.70;;;19.30;67.20;;;;;;5060593;28;20209;-60
2022/10/29 12:38:28;;;;;;;6.07;4.10;;;19.40;66.70;;;;;;5040531;28;20194;-60
2022/10/29 12:41:06;;;;;;;5.53;3.77;;;19.70;65.50;;;;;;5032300;28;20269;-60
2022/10/29 12:43:34;;;;;;;5.10;3.87;;;19.80;63.90;;;;;;5029625;28;20218;-60
2022/10/29 12:46:12;;;;;;;6.97;3.67;;;20.00;64.10;;;;;;5030224;28;20191;-60
2022/10/29 12:48:55;;;;;;;5.47;3.60;;;20.00;63.80;;;;;;5030091;28;20179;-60
2022/10/29 12:51:47;;;;;;;6.90;4.10;;;20.20;63.80;;;;;;5028201;28;20195;-60
2022/10/29 12:54:37;;;;;;;5.03;3.83;;;20.30;64.40;;;;;;5030867;28;20717;-60
2022/10/29 12:57:26;;;;;;;7.97;4.47;;;20.40;61.40;;;;;;5065082;28;20205;-60
2022/10/29 12:59:52;;;;;;;6.30;4.00;;;20.70;62.90;;;;;;5031840;28;20245;-60
2022/10/29 13:02:20;;;;;;;6.90;4.00;;;20.90;63.20;;;;;;5014663;28;20216;-60
2022/10/29 13:05:04;;;;;;;4.33;3.47;;;21.10;61.10;;;;;;5038428;28;20187;-60
2022/10/29 13:07:31;;;;;;;8.30;4.03;;;21.30;58.90;;;;;;5037126;28;20191;-60
2022/10/29 13:10:21;;;;;;;5.87;4.03;;;21.40;60.90;;;;;;5028218;28;20198;-60
2022/10/29 13:13:11;;;;;;;6.57;3.23;;;21.50;61.20;;;;;;5029260;28;20176;-60